Jamestown, ND

1:25 AM CDT on March 29, 2015 (GMT -0500)
Valley City | | Change Station
CLOSE
Current Station
Airport
Location: Valley City,
Elevation: 1401 ft
Nearby Weather Stations
Active Advisory: Wind Advisory Active Notice: Record Report, Public Information Statement

Elev 1401 ft 46.94 °N, 98.02 °W | Updated 10 minutes ago

Rain
Rain
41 °F
Feels Like 33 °F
N
16
Wind Variable Wind from SSW
Gusts 23 mph

Today
High -- | Low -- °F
--% Chance of Precip.
Yesterday
High -- | Low -- °F
Precip. -- in
7:20 AM 7:59 PM
Waxing Gibbous, 69% visible
Pressure 29.54 in
Visibility 5.0 miles
Clouds Mostly Cloudy 3100 ft
Overcast 6500 ft
Windchill 33 °F
Dew Point 41 °F
Humidity 100%
Rainfall 0.02 in
Snow Depth Not available.
UV 0 out of 12
Pollen 2.10 out of 12
Air Quality Not available.
Flu Activity Not available.
METAR KBAC 290615Z AUTO 20014G20KT 5SM -RA BKN031 OVC065 05/05 A2954 RMK AO2

More Conditions Fewer Conditions

Pressure 29.54 in
Visibility 5.0 miles
Clouds Mostly Cloudy 3100 ft
Overcast 6500 ft
Windchill 33 °F
Dew Point 41 °F
Humidity 100%
Rainfall 0.02 in
Snow Depth Not available.
UV 0 out of 12
Pollen 2.10 out of 12
Air Quality Not available.
Flu Activity Not available.
METAR KBAC 290615Z AUTO 20014G20KT 5SM -RA BKN031 OVC065 05/05 A2954 RMK AO2

More Conditions Fewer Conditions

10-Day Weather Forecast

Almanac

Astronomy

Mar. 29, 2015 Rise Set
Actual Time
Civil Twilight
Nautical Twilight
Astronomical Twilight
Moon
Length of Visible Light
Length of Day
Tomorrow will be .
, % of the Moon is Illuminated

Today's Extremes

State Highs State Lows

Community

WunderPhotos

Upload Photos

1,809,186 photos uploaded!

WunderBlogs® & News

Nearby

Air Quality

  Air Quality AQ Index Pollutant
Not available.

Snow Depth

Station Depth Elevation

Earthquake Activity

City Distance Mag. Time & Date
Minimum magnitude displayed is 2.5.

Coastal Water Temperatures

Place Temperature

Stations

Nearby Weather Stations

Station Location Temp. Windchill Dew Point Humidity Wind Precip. Elev Updated Type
                   
Wind Advisory
Statement as of 11:50 PM CDT on March 28, 2015

... Wind Advisory remains in effect until 1 PM CDT Sunday...

* timing... through early Sunday morning.

* Winds... northwest wind gusts to 50 mph.

* Impacts... difficult driving conditions for high profile
vehicles. Difficult outdoor working conditions.

Precautionary/preparedness actions...

A Wind Advisory means that sustained winds of 30 to 40 mph... and
or gusts under 58 mph... are expected. Winds this strong can make
driving difficult... especially for high profile vehicles. Use
extra caution.


Aj